Pine Neck, New York
Current Conditions -  °F | °C
As of 10:08 AM on Wednesday 26 Nov 2014 (Local Time) from KFOK Reporting Station
Moderate Rain Moderate Rain  
Wind Chill:   Ceiling: 4300
Heat Index:   Visibility: 1.7mi
Dew Point:   Wind: 9mph
Humidity: 86%   Direction: 360°N
Pressure: 30.12"   Gusts: NA
Location:  40.9692°N, 72.306°W
Report Text: KFOK 261508Z 36008KT 1 3/4SM RA BR FEW028 BKN043 OVC060 05/03 A3012 RMK AO2 P0002 T00500028
Loading
Personal Weather Stations






























Interactive Weather Map New forecast layout! Learn more

10-Day Weather Forecast

Advertisements
Track Severe Weather on mobile